sensor_id;sensor_type;location;lat;lon;timestamp;pressure;altitude;pressure_sealevel;temperature;humidity
9969;BME280;5025;48.890;9.278;2024-01-15T00:01:32;97830.47;;;-2.54;79.79
9969;BME280;5025;48.890;9.278;2024-01-15T00:03:58;97833.59;;;-2.50;79.76
9969;BME280;5025;48.890;9.278;2024-01-15T00:06:23;97825.63;;;-2.42;79.47
9969;BME280;5025;48.890;9.278;2024-01-15T00:08:49;97820.69;;;-2.37;79.22
9969;BME280;5025;48.890;9.278;2024-01-15T00:11:14;97816.69;;;-2.32;79.03
9969;BME280;5025;48.890;9.278;2024-01-15T00:13:39;97815.22;;;-2.35;79.12
9969;BME280;5025;48.890;9.278;2024-01-15T00:16:04;97809.44;;;-2.39;79.17
9969;BME280;5025;48.890;9.278;2024-01-15T00:18:30;97815.75;;;-2.40;78.76
9969;BME280;5025;48.890;9.278;2024-01-15T00:20:55;97811.13;;;-2.46;79.12
9969;BME280;5025;48.890;9.278;2024-01-15T00:23:22;97820.03;;;-2.47;79.17
9969;BME280;5025;48.890;9.278;2024-01-15T00:25:47;97804.47;;;-2.42;79.00
9969;BME280;5025;48.890;9.278;2024-01-15T00:28:12;97807.47;;;-2.37;78.86
9969;BME280;5025;48.890;9.278;2024-01-15T00:30:37;97803.63;;;-2.34;79.03
9969;BME280;5025;48.890;9.278;2024-01-15T00:33:03;97800.81;;;-2.32;78.64
9969;BME280;5025;48.890;9.278;2024-01-15T00:35:28;97800.47;;;-2.29;78.53
9969;BME280;5025;48.890;9.278;2024-01-15T00:37:53;97808.75;;;-2.24;78.52
9969;BME280;5025;48.890;9.278;2024-01-15T00:40:18;97806.09;;;-2.24;78.29
9969;BME280;5025;48.890;9.278;2024-01-15T00:42:44;97793.53;;;-2.22;78.55
9969;BME280;5025;48.890;9.278;2024-01-15T00:45:09;97797.81;;;-2.21;78.24
9969;BME280;5025;48.890;9.278;2024-01-15T00:47:34;97791.50;;;-2.20;78.28
9969;BME280;5025;48.890;9.278;2024-01-15T00:50:00;97795.69;;;-2.26;78.02
9969;BME280;5025;48.890;9.278;2024-01-15T00:52:25;97803.28;;;-2.31;77.93
9969;BME280;5025;48.890;9.278;2024-01-15T00:54:51;97794.25;;;-2.37;78.34
9969;BME280;5025;48.890;9.278;2024-01-15T00:57:16;97802.00;;;-2.35;78.27
9969;BME280;5025;48.890;9.278;2024-01-15T00:59:41;97796.84;;;-2.28;78.13
9969;BME280;5025;48.890;9.278;2024-01-15T01:02:07;97795.34;;;-2.23;78.28
9969;BME280;5025;48.890;9.278;2024-01-15T01:04:32;97795.66;;;-2.18;78.19
9969;BME280;5025;48.890;9.278;2024-01-15T01:06:57;97808.34;;;-2.13;77.74
9969;BME280;5025;48.890;9.278;2024-01-15T01:09:22;97803.72;;;-2.11;78.02
9969;BME280;5025;48.890;9.278;2024-01-15T01:11:47;97805.84;;;-2.06;77.64
9969;BME280;5025;48.890;9.278;2024-01-15T01:14:13;97795.75;;;-2.03;77.62
9969;BME280;5025;48.890;9.278;2024-01-15T01:16:38;97788.47;;;-2.01;77.51
9969;BME280;5025;48.890;9.278;2024-01-15T01:19:05;97794.41;;;-1.99;77.53
9969;BME280;5025;48.890;9.278;2024-01-15T01:21:31;97789.44;;;-2.02;77.29
9969;BME280;5025;48.890;9.278;2024-01-15T01:23:56;97783.50;;;-2.04;77.30
9969;BME280;5025;48.890;9.278;2024-01-15T01:26:21;97773.75;;;-2.03;77.72
9969;BME280;5025;48.890;9.278;2024-01-15T01:28:47;97779.22;;;-2.05;77.37
9969;BME280;5025;48.890;9.278;2024-01-15T01:31:12;97778.22;;;-2.04;77.77
9969;BME280;5025;48.890;9.278;2024-01-15T01:33:39;97774.59;;;-2.03;77.81
9969;BME280;5025;48.890;9.278;2024-01-15T01:36:09;97778.34;;;-1.97;77.58
9969;BME280;5025;48.890;9.278;2024-01-15T01:38:37;97774.72;;;-1.96;77.66
9969;BME280;5025;48.890;9.278;2024-01-15T01:41:03;97771.91;;;-1.94;77.62
9969;BME280;5025;48.890;9.278;2024-01-15T01:43:28;97780.47;;;-1.92;77.28
9969;BME280;5025;48.890;9.278;2024-01-15T01:45:56;97786.09;;;-1.87;77.13
9969;BME280;5025;48.890;9.278;2024-01-15T01:48:21;97778.78;;;-1.85;77.17
9969;BME280;5025;48.890;9.278;2024-01-15T01:50:47;97775.78;;;-1.82;77.17
9969;BME280;5025;48.890;9.278;2024-01-15T01:53:13;97772.16;;;-1.81;77.09
9969;BME280;5025;48.890;9.278;2024-01-15T01:55:38;97769.50;;;-1.81;77.17
9969;BME280;5025;48.890;9.278;2024-01-15T01:58:04;97770.31;;;-1.81;76.98
9969;BME280;5025;48.890;9.278;2024-01-15T02:00:30;97767.69;;;-1.81;76.99
9969;BME280;5025;48.890;9.278;2024-01-15T02:02:57;97766.19;;;-1.83;77.09
9969;BME280;5025;48.890;9.278;2024-01-15T02:05:22;97770.84;;;-1.85;77.11
9969;BME280;5025;48.890;9.278;2024-01-15T02:07:48;97777.66;;;-1.91;77.39
9969;BME280;5025;48.890;9.278;2024-01-15T02:10:13;97757.50;;;-1.92;77.40
9969;BME280;5025;48.890;9.278;2024-01-15T02:12:39;97769.88;;;-1.92;77.52
9969;BME280;5025;48.890;9.278;2024-01-15T02:15:04;97757.00;;;-1.95;77.63
9969;BME280;5025;48.890;9.278;2024-01-15T02:17:29;97758.03;;;-1.96;77.64
9969;BME280;5025;48.890;9.278;2024-01-15T02:19:55;97760.34;;;-2.02;77.97
9969;BME280;5025;48.890;9.278;2024-01-15T02:22:20;97764.00;;;-2.03;78.35
9969;BME280;5025;48.890;9.278;2024-01-15T02:24:45;97761.53;;;-2.04;78.80
9969;BME280;5025;48.890;9.278;2024-01-15T02:27:10;97757.41;;;-2.07;79.09
9969;BME280;5025;48.890;9.278;2024-01-15T02:29:36;97756.44;;;-2.06;79.55
9969;BME280;5025;48.890;9.278;2024-01-15T02:32:05;97757.28;;;-2.13;80.31
9969;BME280;5025;48.890;9.278;2024-01-15T02:34:32;97756.44;;;-2.14;81.22
9969;BME280;5025;48.890;9.278;2024-01-15T02:36:57;97753.81;;;-2.14;82.05
9969;BME280;5025;48.890;9.278;2024-01-15T02:39:23;97757.47;;;-2.15;82.32
9969;BME280;5025;48.890;9.278;2024-01-15T02:41:48;97755.41;;;-2.05;82.64
9969;BME280;5025;48.890;9.278;2024-01-15T02:44:13;97757.06;;;-2.04;82.79
9969;BME280;5025;48.890;9.278;2024-01-15T02:46:38;97757.53;;;-2.00;82.88
9969;BME280;5025;48.890;9.278;2024-01-15T02:49:04;97758.03;;;-1.96;82.83
9969;BME280;5025;48.890;9.278;2024-01-15T02:51:29;97757.06;;;-2.04;83.26
9969;BME280;5025;48.890;9.278;2024-01-15T02:53:54;97759.00;;;-1.98;83.05
9969;BME280;5025;48.890;9.278;2024-01-15T02:56:19;97747.63;;;-1.98;83.17
9969;BME280;5025;48.890;9.278;2024-01-15T02:58:44;97757.00;;;-1.95;83.47
9969;BME280;5025;48.890;9.278;2024-01-15T03:01:10;97752.03;;;-1.90;83.33
9969;BME280;5025;48.890;9.278;2024-01-15T03:03:35;97750.31;;;-1.83;83.07
9969;BME280;5025;48.890;9.278;2024-01-15T03:06:01;97752.75;;;-1.73;82.47
9969;BME280;5025;48.890;9.278;2024-01-15T03:08:26;97757.56;;;-1.77;82.21
9969;BME280;5025;48.890;9.278;2024-01-15T03:10:52;97749.84;;;-1.87;82.48
9969;BME280;5025;48.890;9.278;2024-01-15T03:13:17;97742.03;;;-1.80;82.50
9969;BME280;5025;48.890;9.278;2024-01-15T03:15:44;97746.44;;;-1.72;82.05
9969;BME280;5025;48.890;9.278;2024-01-15T03:18:09;97743.69;;;-1.79;82.33
9969;BME280;5025;48.890;9.278;2024-01-15T03:20:34;97734.41;;;-1.75;81.88
9969;BME280;5025;48.890;9.278;2024-01-15T03:23:00;97740.97;;;-1.71;81.78
9969;BME280;5025;48.890;9.278;2024-01-15T03:25:25;97743.94;;;-1.66;81.61
9969;BME280;5025;48.890;9.278;2024-01-15T03:27:50;97737.00;;;-1.67;81.21
9969;BME280;5025;48.890;9.278;2024-01-15T03:30:15;97739.47;;;-1.65;80.96
9969;BME280;5025;48.890;9.278;2024-01-15T03:32:41;97735.34;;;-1.68;81.07
9969;BME280;5025;48.890;9.278;2024-01-15T03:35:06;97726.41;;;-1.67;81.01
9969;BME280;5025;48.890;9.278;2024-01-15T03:37:31;97727.69;;;-1.63;80.77
9969;BME280;5025;48.890;9.278;2024-01-15T03:39:57;97724.69;;;-1.59;80.79
9969;BME280;5025;48.890;9.278;2024-01-15T03:42:22;97724.53;;;-1.58;80.53
9969;BME280;5025;48.890;9.278;2024-01-15T03:44:47;97732.94;;;-1.54;80.65
9969;BME280;5025;48.890;9.278;2024-01-15T03:47:12;97731.09;;;-1.54;80.51
9969;BME280;5025;48.890;9.278;2024-01-15T03:49:38;97726.63;;;-1.53;80.38
9969;BME280;5025;48.890;9.278;2024-01-15T03:52:03;97722.34;;;-1.54;80.07
9969;BME280;5025;48.890;9.278;2024-01-15T03:54:28;97720.84;;;-1.57;79.99
9969;BME280;5025;48.890;9.278;2024-01-15T03:56:54;97719.88;;;-1.56;80.29
9969;BME280;5025;48.890;9.278;2024-01-15T03:59:19;97720.84;;;-1.57;80.08
9969;BME280;5025;48.890;9.278;2024-01-15T04:01:50;97721.53;;;-1.55;80.04
9969;BME280;5025;48.890;9.278;2024-01-15T04:04:16;97713.59;;;-1.55;79.78
9969;BME280;5025;48.890;9.278;2024-01-15T04:06:41;97722.97;;;-1.52;79.80
9969;BME280;5025;48.890;9.278;2024-01-15T04:09:07;97709.38;;;-1.49;79.93
9969;BME280;5025;48.890;9.278;2024-01-15T04:11:32;97701.44;;;-1.49;79.68
9969;BME280;5025;48.890;9.278;2024-01-15T04:13:57;97704.94;;;-1.49;79.72
9969;BME280;5025;48.890;9.278;2024-01-15T04:16:22;97705.09;;;-1.50;79.57
9969;BME280;5025;48.890;9.278;2024-01-15T04:18:48;97699.81;;;-1.50;79.80
9969;BME280;5025;48.890;9.278;2024-01-15T04:21:13;97697.16;;;-1.50;79.55
9969;BME280;5025;48.890;9.278;2024-01-15T04:23:39;97700.63;;;-1.50;79.73
9969;BME280;5025;48.890;9.278;2024-01-15T04:26:04;97690.38;;;-1.53;79.64
9969;BME280;5025;48.890;9.278;2024-01-15T04:28:29;97687.91;;;-1.54;79.71
9969;BME280;5025;48.890;9.278;2024-01-15T04:30:55;97686.94;;;-1.53;80.03
9969;BME280;5025;48.890;9.278;2024-01-15T04:33:20;97686.09;;;-1.54;79.97
9969;BME280;5025;48.890;9.278;2024-01-15T04:35:45;97686.94;;;-1.53;80.04
9969;BME280;5025;48.890;9.278;2024-01-15T04:38:10;97678.84;;;-1.60;80.36
9969;BME280;5025;48.890;9.278;2024-01-15T04:40:36;97688.88;;;-1.70;81.67
9969;BME280;5025;48.890;9.278;2024-01-15T04:43:01;97669.34;;;-1.69;82.12
9969;BME280;5025;48.890;9.278;2024-01-15T04:45:26;97671.56;;;-1.58;82.16
9969;BME280;5025;48.890;9.278;2024-01-15T04:47:54;97675.22;;;-1.59;82.44
9969;BME280;5025;48.890;9.278;2024-01-15T04:50:21;97693.56;;;-1.57;82.53
9969;BME280;5025;48.890;9.278;2024-01-15T04:52:46;97688.09;;;-1.56;82.97
9969;BME280;5025;48.890;9.278;2024-01-15T04:55:11;97685.44;;;-1.56;82.96
9969;BME280;5025;48.890;9.278;2024-01-15T04:57:36;97688.56;;;-1.52;82.75
9969;BME280;5025;48.890;9.278;2024-01-15T05:00:02;97690.84;;;-1.49;82.40
9969;BME280;5025;48.890;9.278;2024-01-15T05:02:28;97689.50;;;-1.45;82.01
9969;BME280;5025;48.890;9.278;2024-01-15T05:04:53;97683.84;;;-1.42;82.12
9969;BME280;5025;48.890;9.278;2024-01-15T05:07:18;97686.75;;;-1.37;81.59
9969;BME280;5025;48.890;9.278;2024-01-15T05:09:43;97687.06;;;-1.32;80.83
9969;BME280;5025;48.890;9.278;2024-01-15T05:12:09;97694.94;;;-1.23;80.54
9969;BME280;5025;48.890;9.278;2024-01-15T05:14:34;97685.59;;;-1.19;80.15
9969;BME280;5025;48.890;9.278;2024-01-15T05:16:59;97678.75;;;-1.14;79.81
9969;BME280;5025;48.890;9.278;2024-01-15T05:19:24;97667.44;;;-1.08;79.45
9969;BME280;5025;48.890;9.278;2024-01-15T05:21:50;97670.00;;;-1.14;79.51
9969;BME280;5025;48.890;9.278;2024-01-15T05:24:15;97663.69;;;-1.13;79.48
9969;BME280;5025;48.890;9.278;2024-01-15T05:26:40;97671.81;;;-1.15;79.64
9969;BME280;5025;48.890;9.278;2024-01-15T05:29:05;97667.00;;;-1.11;79.54
9969;BME280;5025;48.890;9.278;2024-01-15T05:31:31;97659.66;;;-1.09;79.06
9969;BME280;5025;48.890;9.278;2024-01-15T05:33:56;97649.88;;;-1.09;79.03
9969;BME280;5025;48.890;9.278;2024-01-15T05:36:21;97663.50;;;-1.12;78.95
9969;BME280;5025;48.890;9.278;2024-01-15T05:38:47;97662.31;;;-1.09;78.39
9969;BME280;5025;48.890;9.278;2024-01-15T05:41:12;97680.50;;;-1.06;78.24
9969;BME280;5025;48.890;9.278;2024-01-15T05:43:38;97663.13;;;-1.09;77.95
9969;BME280;5025;48.890;9.278;2024-01-15T05:46:03;97648.78;;;-0.99;77.77
9969;BME280;5025;48.890;9.278;2024-01-15T05:48:28;97650.44;;;-0.98;77.41
9969;BME280;5025;48.890;9.278;2024-01-15T05:50:54;97643.03;;;-1.03;77.32
9969;BME280;5025;48.890;9.278;2024-01-15T05:53:19;97655.66;;;-1.05;77.56
9969;BME280;5025;48.890;9.278;2024-01-15T05:55:44;97661.78;;;-1.04;77.93
9969;BME280;5025;48.890;9.278;2024-01-15T05:58:09;97645.69;;;-1.03;77.53
9969;BME280;5025;48.890;9.278;2024-01-15T06:00:35;97642.69;;;-1.00;77.30
9969;BME280;5025;48.890;9.278;2024-01-15T06:03:01;97658.56;;;-1.00;77.55
9969;BME280;5025;48.890;9.278;2024-01-15T06:05:26;97647.16;;;-1.00;77.49
9969;BME280;5025;48.890;9.278;2024-01-15T06:07:52;97661.59;;;-1.03;77.69
9969;BME280;5025;48.890;9.278;2024-01-15T06:10:17;97643.69;;;-1.01;77.77
9969;BME280;5025;48.890;9.278;2024-01-15T06:12:43;97647.78;;;-0.98;77.30
9969;BME280;5025;48.890;9.278;2024-01-15T06:15:09;97644.41;;;-0.92;77.17
9969;BME280;5025;48.890;9.278;2024-01-15T06:17:35;97642.03;;;-0.87;76.34
9969;BME280;5025;48.890;9.278;2024-01-15T06:20:00;97659.13;;;-0.89;76.27
9969;BME280;5025;48.890;9.278;2024-01-15T06:22:25;97658.59;;;-0.85;76.02
9969;BME280;5025;48.890;9.278;2024-01-15T06:24:50;97643.75;;;-0.79;75.88
9969;BME280;5025;48.890;9.278;2024-01-15T06:27:16;97636.47;;;-0.77;75.46
9969;BME280;5025;48.890;9.278;2024-01-15T06:29:45;97628.75;;;-0.72;75.10
9969;BME280;5025;48.890;9.278;2024-01-15T06:32:12;97631.59;;;-0.74;74.87
9969;BME280;5025;48.890;9.278;2024-01-15T06:34:37;97636.47;;;-0.77;74.83
9969;BME280;5025;48.890;9.278;2024-01-15T06:37:02;97630.13;;;-0.76;74.98
9969;BME280;5025;48.890;9.278;2024-01-15T06:39:27;97626.94;;;-0.72;75.00
9969;BME280;5025;48.890;9.278;2024-01-15T06:41:53;97634.31;;;-0.67;74.70
9969;BME280;5025;48.890;9.278;2024-01-15T06:44:18;97639.00;;;-0.69;74.75
9969;BME280;5025;48.890;9.278;2024-01-15T06:46:46;97637.53;;;-0.72;74.32
9969;BME280;5025;48.890;9.278;2024-01-15T06:49:12;97637.34;;;-0.70;74.57
9969;BME280;5025;48.890;9.278;2024-01-15T06:51:37;97636.34;;;-0.69;74.35
9969;BME280;5025;48.890;9.278;2024-01-15T06:54:03;97641.03;;;-0.71;74.44
9969;BME280;5025;48.890;9.278;2024-01-15T06:56:28;97631.84;;;-0.68;74.40
9969;BME280;5025;48.890;9.278;2024-01-15T06:58:54;97632.69;;;-0.68;74.54
9969;BME280;5025;48.890;9.278;2024-01-15T07:01:19;97640.72;;;-0.61;74.38
9969;BME280;5025;48.890;9.278;2024-01-15T07:03:44;97641.28;;;-0.66;74.05
9969;BME280;5025;48.890;9.278;2024-01-15T07:06:10;97652.97;;;-0.60;74.02
9969;BME280;5025;48.890;9.278;2024-01-15T07:08:36;97638.81;;;-0.52;73.77
9969;BME280;5025;48.890;9.278;2024-01-15T07:11:03;97637.16;;;-0.53;73.68
9969;BME280;5025;48.890;9.278;2024-01-15T07:13:29;97640.00;;;-0.70;74.26
9969;BME280;5025;48.890;9.278;2024-01-15T07:15:54;97648.50;;;-0.60;73.99
9969;BME280;5025;48.890;9.278;2024-01-15T07:18:19;97641.66;;;-0.69;73.77
9969;BME280;5025;48.890;9.278;2024-01-15T07:20:45;97648.50;;;-0.60;73.81
9969;BME280;5025;48.890;9.278;2024-01-15T07:23:10;97643.63;;;-0.56;73.62
9969;BME280;5025;48.890;9.278;2024-01-15T07:25:35;97636.88;;;-0.59;73.51
9969;BME280;5025;48.890;9.278;2024-01-15T07:28:00;97642.56;;;-0.62;73.64
9969;BME280;5025;48.890;9.278;2024-01-15T07:30:26;97642.94;;;-0.65;73.84
9969;BME280;5025;48.890;9.278;2024-01-15T07:32:51;97637.44;;;-0.63;73.70
9969;BME280;5025;48.890;9.278;2024-01-15T07:35:18;97640.28;;;-0.65;73.63
9969;BME280;5025;48.890;9.278;2024-01-15T07:37:43;97639.53;;;-0.59;73.57
9969;BME280;5025;48.890;9.278;2024-01-15T07:40:09;97642.00;;;-0.57;73.51
9969;BME280;5025;48.890;9.278;2024-01-15T07:42:35;97651.34;;;-0.61;73.44
9969;BME280;5025;48.890;9.278;2024-01-15T07:45:01;97648.41;;;-0.66;74.07
9969;BME280;5025;48.890;9.278;2024-01-15T07:47:26;97643.00;;;-0.58;73.92
9969;BME280;5025;48.890;9.278;2024-01-15T07:49:53;97636.88;;;-0.59;73.78
9969;BME280;5025;48.890;9.278;2024-01-15T07:52:18;97642.06;;;-0.50;73.86
9969;BME280;5025;48.890;9.278;2024-01-15T07:54:43;97638.88;;;-0.46;73.50
9969;BME280;5025;48.890;9.278;2024-01-15T07:57:09;97641.34;;;-0.44;72.83
9969;BME280;5025;48.890;9.278;2024-01-15T07:59:35;97643.44;;;-0.40;73.15
9969;BME280;5025;48.890;9.278;2024-01-15T08:02:00;97641.59;;;-0.39;73.16
9969;BME280;5025;48.890;9.278;2024-01-15T08:04:25;97654.47;;;-0.36;72.81
9969;BME280;5025;48.890;9.278;2024-01-15T08:06:51;97644.97;;;-0.45;72.98
9969;BME280;5025;48.890;9.278;2024-01-15T08:09:16;97650.75;;;-0.42;73.05
9969;BME280;5025;48.890;9.278;2024-01-15T08:11:42;97640.97;;;-0.41;72.80
9969;BME280;5025;48.890;9.278;2024-01-15T08:14:08;97650.19;;;-0.37;72.60
9969;BME280;5025;48.890;9.278;2024-01-15T08:16:34;97650.19;;;-0.37;72.63
9969;BME280;5025;48.890;9.278;2024-01-15T08:18:59;97638.56;;;-0.36;72.51
9969;BME280;5025;48.890;9.278;2024-01-15T08:21:25;97649.03;;;-0.49;72.72
9969;BME280;5025;48.890;9.278;2024-01-15T08:23:50;97658.78;;;-0.50;72.75
9969;BME280;5025;48.890;9.278;2024-01-15T08:26:15;97650.94;;;-0.43;73.07
9969;BME280;5025;48.890;9.278;2024-01-15T08:28:41;97644.59;;;-0.42;72.77
9969;BME280;5025;48.890;9.278;2024-01-15T08:31:06;97643.63;;;-0.41;72.83
9969;BME280;5025;48.890;9.278;2024-01-15T08:33:31;97652.38;;;-0.41;72.67
9969;BME280;5025;48.890;9.278;2024-01-15T08:35:56;97649.16;;;-0.36;72.42
9969;BME280;5025;48.890;9.278;2024-01-15T08:38:22;97641.03;;;-0.34;72.23
9969;BME280;5025;48.890;9.278;2024-01-15T08:40:48;97645.94;;;-0.31;72.53
9969;BME280;5025;48.890;9.278;2024-01-15T08:43:14;97642.94;;;-0.28;72.35
9969;BME280;5025;48.890;9.278;2024-01-15T08:45:39;97642.13;;;-0.29;72.18
9969;BME280;5025;48.890;9.278;2024-01-15T08:48:04;97647.41;;;-0.29;72.21
9969;BME280;5025;48.890;9.278;2024-01-15T08:50:31;97646.22;;;-0.26;71.92
9969;BME280;5025;48.890;9.278;2024-01-15T08:52:57;97639.03;;;-0.32;72.26
9969;BME280;5025;48.890;9.278;2024-01-15T08:55:22;97636.19;;;-0.31;72.01
9969;BME280;5025;48.890;9.278;2024-01-15T08:57:48;97638.66;;;-0.29;72.08
9969;BME280;5025;48.890;9.278;2024-01-15T09:00:14;97634.53;;;-0.32;71.80
9969;BME280;5025;48.890;9.278;2024-01-15T09:02:39;97644.69;;;-0.35;71.20
9969;BME280;5025;48.890;9.278;2024-01-15T09:05:04;97638.19;;;-0.33;71.01
9969;BME280;5025;48.890;9.278;2024-01-15T09:07:30;97638.56;;;-0.36;70.42
9969;BME280;5025;48.890;9.278;2024-01-15T09:09:55;97634.97;;;-0.28;69.96
9969;BME280;5025;48.890;9.278;2024-01-15T09:12:20;97641.94;;;-0.27;69.47
9969;BME280;5025;48.890;9.278;2024-01-15T09:14:47;97632.59;;;-0.23;69.42
9969;BME280;5025;48.890;9.278;2024-01-15T09:17:12;97628.72;;;-0.21;69.41
9969;BME280;5025;48.890;9.278;2024-01-15T09:19:38;97625.97;;;-0.12;69.21
9969;BME280;5025;48.890;9.278;2024-01-15T09:22:07;97625.78;;;-0.11;69.04
9969;BME280;5025;48.890;9.278;2024-01-15T09:24:32;97611.84;;;-0.13;68.64
9969;BME280;5025;48.890;9.278;2024-01-15T09:26:57;97612.94;;;-0.07;68.22
9969;BME280;5025;48.890;9.278;2024-01-15T09:29:23;97619.06;;;-0.07;68.14
9969;BME280;5025;48.890;9.278;2024-01-15T09:31:49;97616.50;;;0.00;67.84
9969;BME280;5025;48.890;9.278;2024-01-15T09:34:15;97624.00;;;-0.04;67.61
9969;BME280;5025;48.890;9.278;2024-01-15T09:36:40;97626.06;;;0.01;67.50
9969;BME280;5025;48.890;9.278;2024-01-15T09:39:07;97636.00;;;-0.08;67.20
9969;BME280;5025;48.890;9.278;2024-01-15T09:41:35;97624.94;;;-0.11;67.52
9969;BME280;5025;48.890;9.278;2024-01-15T09:44:01;97624.19;;;-0.05;67.43
9969;BME280;5025;48.890;9.278;2024-01-15T09:46:27;97627.50;;;-0.03;67.39
9969;BME280;5025;48.890;9.278;2024-01-15T09:48:53;97625.25;;;0.01;67.29
9969;BME280;5025;48.890;9.278;2024-01-15T09:51:19;97620.91;;;-0.07;67.71
9969;BME280;5025;48.890;9.278;2024-01-15T09:53:46;97613.38;;;-0.04;67.62
9969;BME280;5025;48.890;9.278;2024-01-15T09:56:11;97606.69;;;0.01;67.78
9969;BME280;5025;48.890;9.278;2024-01-15T09:58:38;97598.09;;;-0.02;67.43
9969;BME280;5025;48.890;9.278;2024-01-15T10:01:04;97594.22;;;0.01;67.46
9969;BME280;5025;48.890;9.278;2024-01-15T10:03:29;97601.81;;;0.04;67.71
9969;BME280;5025;48.890;9.278;2024-01-15T10:05:55;97600.16;;;0.03;68.01
9969;BME280;5025;48.890;9.278;2024-01-15T10:08:23;97595.75;;;0.10;67.85
9969;BME280;5025;48.890;9.278;2024-01-15T10:10:50;97597.44;;;0.18;67.74
9969;BME280;5025;48.890;9.278;2024-01-15T10:13:15;97590.56;;;0.24;67.67
9969;BME280;5025;48.890;9.278;2024-01-15T10:15:40;97591.75;;;0.21;67.41
9969;BME280;5025;48.890;9.278;2024-01-15T10:18:07;97583.53;;;0.16;67.59
9969;BME280;5025;48.890;9.278;2024-01-15T10:20:33;97575.00;;;0.21;67.45
9969;BME280;5025;48.890;9.278;2024-01-15T10:22:58;97571.31;;;0.22;67.36
9969;BME280;5025;48.890;9.278;2024-01-15T10:25:24;97580.25;;;0.14;67.30
9969;BME280;5025;48.890;9.278;2024-01-15T10:28:03;97566.72;;;0.09;67.04
9969;BME280;5025;48.890;9.278;2024-01-15T10:30:30;97572.72;;;0.17;67.04
9969;BME280;5025;48.890;9.278;2024-01-15T10:33:02;97560.03;;;0.13;67.54
9969;BME280;5025;48.890;9.278;2024-01-15T10:35:34;97569.22;;;0.17;67.39
9969;BME280;5025;48.890;9.278;2024-01-15T10:38:00;97564.31;;;0.14;67.35
9969;BME280;5025;48.890;9.278;2024-01-15T10:40:26;97544.91;;;0.13;67.30
9969;BME280;5025;48.890;9.278;2024-01-15T10:42:51;97545.84;;;0.27;67.07
9969;BME280;5025;48.890;9.278;2024-01-15T10:45:17;97547.69;;;0.27;66.83
9969;BME280;5025;48.890;9.278;2024-01-15T10:47:42;97539.94;;;0.32;67.01
9969;BME280;5025;48.890;9.278;2024-01-15T10:50:09;97535.25;;;0.34;67.20
9969;BME280;5025;48.890;9.278;2024-01-15T10:52:38;97536.09;;;0.34;67.26
9969;BME280;5025;48.890;9.278;2024-01-15T10:55:07;97561.78;;;0.27;67.73
9969;BME280;5025;48.890;9.278;2024-01-15T10:57:34;97535.78;;;0.23;68.26
9969;BME280;5025;48.890;9.278;2024-01-15T10:59:59;97536.19;;;0.20;69.65
9969;BME280;5025;48.890;9.278;2024-01-15T11:02:25;97531.50;;;0.22;70.54
9969;BME280;5025;48.890;9.278;2024-01-15T11:04:51;97534.53;;;0.18;70.94
9969;BME280;5025;48.890;9.278;2024-01-15T11:07:16;97557.19;;;0.14;71.77
9969;BME280;5025;48.890;9.278;2024-01-15T11:09:43;97542.47;;;0.12;72.85
9969;BME280;5025;48.890;9.278;2024-01-15T11:12:13;97550.56;;;0.04;74.86
9969;BME280;5025;48.890;9.278;2024-01-15T11:14:40;97540.09;;;-0.05;77.13
9969;BME280;5025;48.890;9.278;2024-01-15T11:17:05;97527.78;;;-0.12;78.98
9969;BME280;5025;48.890;9.278;2024-01-15T11:19:45;97543.44;;;-0.17;81.84
9969;BME280;5025;48.890;9.278;2024-01-15T11:25:14;97541.50;;;-0.30;86.07
9969;BME280;5025;48.890;9.278;2024-01-15T11:30:10;97533.50;;;-0.37;88.36
9969;BME280;5025;48.890;9.278;2024-01-15T11:32:36;97531.78;;;-0.45;89.58
9969;BME280;5025;48.890;9.278;2024-01-15T11:35:02;97523.44;;;-0.42;90.35
9969;BME280;5025;48.890;9.278;2024-01-15T11:37:29;97522.19;;;-0.46;91.03
9969;BME280;5025;48.890;9.278;2024-01-15T11:40:17;97510.19;;;-0.42;91.31
9969;BME280;5025;48.890;9.278;2024-01-15T11:42:43;97519.38;;;-0.38;91.24
9969;BME280;5025;48.890;9.278;2024-01-15T11:45:09;97510.25;;;-0.35;91.62
9969;BME280;5025;48.890;9.278;2024-01-15T11:48:11;97516.34;;;-0.34;91.64
9969;BME280;5025;48.890;9.278;2024-01-15T11:50:49;97530.09;;;-0.31;91.68
9969;BME280;5025;48.890;9.278;2024-01-15T11:53:26;97536.56;;;-0.33;91.77
9969;BME280;5025;48.890;9.278;2024-01-15T11:55:57;97526.16;;;-0.35;92.07
9969;BME280;5025;48.890;9.278;2024-01-15T11:58:23;97525.53;;;-0.37;91.99
9969;BME280;5025;48.890;9.278;2024-01-15T12:00:51;97527.81;;;-0.34;92.07
9969;BME280;5025;48.890;9.278;2024-01-15T12:03:20;97531.69;;;-0.30;92.00
9969;BME280;5025;48.890;9.278;2024-01-15T12:05:45;97529.03;;;-0.30;91.89
9969;BME280;5025;48.890;9.278;2024-01-15T12:08:11;97537.38;;;-0.33;92.30
9969;BME280;5025;48.890;9.278;2024-01-15T12:10:40;97520.28;;;-0.30;92.45
9969;BME280;5025;48.890;9.278;2024-01-15T12:13:13;97522.31;;;-0.32;92.95
9969;BME280;5025;48.890;9.278;2024-01-15T12:15:39;97521.84;;;-0.36;93.76
9969;BME280;5025;48.890;9.278;2024-01-15T12:18:09;97524.06;;;-0.40;94.24
9969;BME280;5025;48.890;9.278;2024-01-15T12:20:34;97525.06;;;-0.41;94.87
9969;BME280;5025;48.890;9.278;2024-01-15T12:23:01;97524.25;;;-0.41;95.36
9969;BME280;5025;48.890;9.278;2024-01-15T12:25:29;97518.97;;;-0.41;95.91
9969;BME280;5025;48.890;9.278;2024-01-15T12:27:55;97523.88;;;-0.38;96.58
9969;BME280;5025;48.890;9.278;2024-01-15T12:30:21;97518.91;;;-0.48;97.24
9969;BME280;5025;48.890;9.278;2024-01-15T12:32:46;97522.19;;;-0.46;97.73
9969;BME280;5025;48.890;9.278;2024-01-15T12:35:13;97526.03;;;-0.48;98.18
9969;BME280;5025;48.890;9.278;2024-01-15T12:37:39;97522.13;;;-0.52;98.79
9969;BME280;5025;48.890;9.278;2024-01-15T12:40:06;97525.22;;;-0.49;99.22
9969;BME280;5025;48.890;9.278;2024-01-15T12:42:33;97537.66;;;-0.49;99.58
9969;BME280;5025;48.890;9.278;2024-01-15T12:44:58;97533.53;;;-0.52;100.00
9969;BME280;5025;48.890;9.278;2024-01-15T12:47:23;97532.25;;;-0.56;100.00
9969;BME280;5025;48.890;9.278;2024-01-15T12:49:51;97541.81;;;-0.62;100.00
9969;BME280;5025;48.890;9.278;2024-01-15T12:52:19;97535.63;;;-0.69;100.00
9969;BME280;5025;48.890;9.278;2024-01-15T12:54:45;97531.59;;;-0.65;100.00
9969;BME280;5025;48.890;9.278;2024-01-15T12:57:10;97530.13;;;-0.67;100.00
9969;BME280;5025;48.890;9.278;2024-01-15T12:59:35;97546.84;;;-0.67;100.00
9969;BME280;5025;48.890;9.278;2024-01-15T13:02:01;97536.59;;;-0.70;100.00
9969;BME280;5025;48.890;9.278;2024-01-15T13:04:26;97541.91;;;-0.70;100.00
9969;BME280;5025;48.890;9.278;2024-01-15T13:06:52;97531.69;;;-0.73;100.00
9969;BME280;5025;48.890;9.278;2024-01-15T13:09:18;97536.59;;;-0.70;100.00
9969;BME280;5025;48.890;9.278;2024-01-15T13:11:44;97547.75;;;-0.60;100.00
9969;BME280;5025;48.890;9.278;2024-01-15T13:14:10;97539.84;;;-0.53;100.00
9969;BME280;5025;48.890;9.278;2024-01-15T13:16:35;97548.19;;;-0.56;100.00
9969;BME280;5025;48.890;9.278;2024-01-15T13:19:00;97544.28;;;-0.60;100.00
9969;BME280;5025;48.890;9.278;2024-01-15T13:21:26;97546.94;;;-0.60;100.00